YPKG

Kalgoorlie Boulder Airport

Kalgoorlie, Australia
METAR YPKG 270730Z AUTO 28013KT 9999 // SCT049 19/08 Q1015
Observed Flight Rules
May-27 @ 07:30 UTC (36 minutes ago) Visual Flight Rules
Wind Visibility Clouds
280° at 13 knots 10,000+ meters
  • Scattered at 4,900' AGL
Temperatures Readings
Current 19°C / 66°F
Dewpoint 8°C / 46°F
Humidity 49%
Altimeter 29.97" Hg
Pressure 1015 hPa
Elevation 360
METAR YPKG 270730Z AUTO 28013KT 9999 // SCT049 19/08 Q1015
Observed Flight Rules
May-27 @ 07:30 UTC
(36 minutes ago)
VFR
Wind Visibility
280° at 13 knots 10,000+ meters
Clouds
  • Scattered at 4,900' AGL
Temperature Dewpoint
19°C / 66°F 8°C / 46°F
Humidity Altimeter Pressure
49% 29.97" Hg 1015 hPa